Time;durP1;ratioP1;P1;durP2;ratioP2;P2;SDS_P1;SDS_P2;PMS_P1;PMS_P2;Temp;Humidity;BMP_temperature;BMP_pressure;BME280_temperature;BME280_humidity;BME280_pressure;Samples;Min_cycle;Max_cycle;Signal;HPM_P1;HPM_P2
2022/07/10 00:00:29;;;;;;;8.83;5.73;;;;;;;;;;5095594;28;20455;-70
2022/07/10 00:02:57;;;;;;;5.80;5.30;;;;;;;;;;5095693;28;21040;-70
2022/07/10 00:05:26;;;;;;;6.27;5.67;;;;;;;;;;5095362;28;20492;-70
2022/07/10 00:07:53;;;;;;;7.57;6.87;;;;;;;;;;5095926;28;20935;-70
2022/07/10 00:10:20;;;;;;;8.17;6.70;;;;;;;;;;5095849;28;20804;-70
2022/07/10 00:12:48;;;;;;;7.60;6.80;;;;;;;;;;5095291;28;20473;-71
2022/07/10 00:15:16;;;;;;;9.87;7.30;;;;;;;;;;5095305;28;20497;-70
2022/07/10 00:17:43;;;;;;;7.60;6.07;;;;;;;;;;5095480;28;20504;-70
2022/07/10 00:20:11;;;;;;;8.63;7.73;;;;;;;;;;5095612;28;20451;-70
2022/07/10 00:22:40;;;;;;;9.17;6.63;;;;;;;;;;5095261;28;20481;-70
2022/07/10 00:25:07;;;;;;;6.50;5.90;;;;;;;;;;5095280;28;20462;-70
2022/07/10 00:27:35;;;;;;;9.97;8.97;;;;;;;;;;5095059;28;20447;-70
2022/07/10 00:30:02;;;;;;;9.93;9.03;;;;;;;;;;5095251;28;20454;-70
2022/07/10 00:32:29;;;;;;;6.77;6.17;;;;;;;;;;5094997;28;20508;-70
2022/07/10 00:34:56;;;;;;;7.40;6.70;;;;;;;;;;5095265;28;20835;-70
2022/07/10 00:37:24;;;;;;;9.77;6.80;;;;;;;;;;5095319;28;20458;-70
2022/07/10 00:39:52;;;;;;;7.00;6.30;;;;;;;;;;5095339;28;20461;-70
2022/07/10 00:42:19;;;;;;;9.90;7.40;;;;;;;;;;5095199;28;20477;-70
2022/07/10 00:44:46;;;;;;;16.57;10.40;;;;;;;;;;5094860;28;20458;-70
2022/07/10 00:47:17;;;;;;;12.90;8.30;;;;;;;;;;5095082;28;20451;-70
2022/07/10 00:49:44;;;;;;;7.87;7.20;;;;;;;;;;5095168;28;20431;-70
2022/07/10 00:52:15;;;;;;;7.83;7.03;;;;;;;;;;5094811;28;20477;-70
2022/07/10 00:54:44;;;;;;;8.50;7.80;;;;;;;;;;5094935;28;20470;-70
2022/07/10 00:57:15;;;;;;;9.23;8.30;;;;;;;;;;5094629;28;20450;-70
2022/07/10 00:59:42;;;;;;;10.57;8.03;;;;;;;;;;5094630;28;20431;-70
2022/07/10 01:02:09;;;;;;;8.93;7.93;;;;;;;;;;5094822;28;20544;-70
2022/07/10 01:04:37;;;;;;;9.27;8.37;;;;;;;;;;5094475;28;20863;-70
2022/07/10 01:07:04;;;;;;;10.13;9.03;;;;;;;;;;5094520;28;20454;-70
2022/07/10 01:09:31;;;;;;;9.57;8.57;;;;;;;;;;5094426;28;20443;-70
2022/07/10 01:12:01;;;;;;;10.43;8.70;;;;;;;;;;5094612;28;20473;-70
2022/07/10 01:14:30;;;;;;;10.30;8.03;;;;;;;;;;5094562;28;20483;-70
2022/07/10 01:16:57;;;;;;;11.73;8.63;;;;;;;;;;5094596;28;20451;-70
2022/07/10 01:19:24;;;;;;;11.67;9.63;;;;;;;;;;5094152;28;20466;-70
2022/07/10 01:21:52;;;;;;;12.07;9.00;;;;;;;;;;5094378;28;20835;-70
2022/07/10 01:24:20;;;;;;;9.87;8.93;;;;;;;;;;5094032;28;20451;-70
2022/07/10 01:26:47;;;;;;;10.83;9.73;;;;;;;;;;5094011;28;20466;-70
2022/07/10 01:29:14;;;;;;;9.23;8.33;;;;;;;;;;5094072;28;20450;-70
2022/07/10 01:31:41;;;;;;;8.93;8.03;;;;;;;;;;5094287;28;20832;-70
2022/07/10 01:34:09;;;;;;;9.37;8.47;;;;;;;;;;5094006;28;20486;-70
2022/07/10 01:36:37;;;;;;;10.80;8.17;;;;;;;;;;5094275;28;20454;-70
2022/07/10 01:39:06;;;;;;;10.93;9.50;;;;;;;;;;5093348;28;20451;-70
2022/07/10 01:41:33;;;;;;;10.37;9.43;;;;;;;;;;5094023;28;20498;-70
2022/07/10 01:44:00;;;;;;;11.13;9.20;;;;;;;;;;5094141;28;20458;-70
2022/07/10 01:46:27;;;;;;;13.03;8.77;;;;;;;;;;5094025;28;20933;-70
2022/07/10 01:48:54;;;;;;;11.13;9.93;;;;;;;;;;5094131;28;20435;-70
2022/07/10 01:51:21;;;;;;;13.80;9.83;;;;;;;;;;5093669;28;20471;-70
2022/07/10 01:53:48;;;;;;;13.00;11.33;;;;;;;;;;5093915;28;20475;-70
2022/07/10 01:56:17;;;;;;;13.13;11.00;;;;;;;;;;5093940;28;20443;-70
2022/07/10 01:58:44;;;;;;;9.80;8.90;;;;;;;;;;5093645;28;20450;-70
2022/07/10 02:01:12;;;;;;;11.77;10.57;;;;;;;;;;5093789;28;20478;-70
2022/07/10 02:06:29;;;;;;;11.37;9.93;;;;;;;;;;5036328;28;20436;-70
2022/07/10 02:08:57;;;;;;;9.60;8.70;;;;;;;;;;5093822;28;20457;-70
2022/07/10 02:11:25;;;;;;;13.40;11.17;;;;;;;;;;5093339;28;20471;-70
2022/07/10 02:13:52;;;;;;;10.53;8.90;;;;;;;;;;5093611;28;20490;-70
2022/07/10 02:16:19;;;;;;;9.70;8.70;;;;;;;;;;5093645;28;20940;-70
2022/07/10 02:18:46;;;;;;;10.53;9.53;;;;;;;;;;5093590;28;20462;-70
2022/07/10 02:21:13;;;;;;;9.73;8.73;;;;;;;;;;5093211;28;20466;-70
2022/07/10 02:23:41;;;;;;;11.00;10.00;;;;;;;;;;5093404;28;20811;-70
2022/07/10 02:26:08;;;;;;;15.90;10.80;;;;;;;;;;5093366;28;20489;-70
2022/07/10 02:28:36;;;;;;;12.67;10.33;;;;;;;;;;5093196;28;20455;-70
2022/07/10 02:31:04;;;;;;;12.30;10.93;;;;;;;;;;5093428;28;20469;-70
2022/07/10 02:33:31;;;;;;;12.90;10.87;;;;;;;;;;5093324;28;20801;-70
2022/07/10 02:35:58;;;;;;;12.90;11.60;;;;;;;;;;5093450;28;20457;-70
2022/07/10 02:38:25;;;;;;;14.33;10.80;;;;;;;;;;5093405;28;20458;-70
2022/07/10 02:40:52;;;;;;;12.33;11.33;;;;;;;;;;5093357;28;20928;-70
2022/07/10 02:43:19;;;;;;;11.90;10.80;;;;;;;;;;5093401;28;20451;-70
2022/07/10 02:45:48;;;;;;;14.00;12.13;;;;;;;;;;5093344;28;20816;-70
2022/07/10 02:48:16;;;;;;;13.07;11.77;;;;;;;;;;5093350;28;20457;-70
2022/07/10 02:50:43;;;;;;;14.60;11.40;;;;;;;;;;5093201;28;20823;-70
2022/07/10 02:53:10;;;;;;;16.93;11.90;;;;;;;;;;5096320;28;20467;-70
2022/07/10 02:55:37;;;;;;;13.63;12.30;;;;;;;;;;5097274;28;20841;-70
2022/07/10 02:58:04;;;;;;;11.67;10.50;;;;;;;;;;5097298;28;20455;-70
2022/07/10 03:00:31;;;;;;;14.13;11.33;;;;;;;;;;5096947;28;20450;-70
2022/07/10 03:03:00;;;;;;;14.30;11.70;;;;;;;;;;5097196;28;20493;-70
2022/07/10 03:05:27;;;;;;;13.73;11.00;;;;;;;;;;5097200;28;20446;-70
2022/07/10 03:07:54;;;;;;;12.47;10.90;;;;;;;;;;5097154;28;20936;-70
2022/07/10 03:10:21;;;;;;;11.80;10.33;;;;;;;;;;5096783;28;20450;-70
2022/07/10 03:12:49;;;;;;;13.87;10.73;;;;;;;;;;5096919;28;20470;-70
2022/07/10 03:15:16;;;;;;;10.80;9.80;;;;;;;;;;5096569;28;20478;-70
2022/07/10 03:17:43;;;;;;;12.30;11.17;;;;;;;;;;5096665;28;20451;-70
2022/07/10 03:20:12;;;;;;;12.40;10.50;;;;;;;;;;5096823;28;20808;-70
2022/07/10 03:22:39;;;;;;;12.70;11.50;;;;;;;;;;5096740;28;20829;-70
2022/07/10 03:25:07;;;;;;;14.33;11.00;;;;;;;;;;5096336;28;20461;-70
2022/07/10 03:27:34;;;;;;;11.10;10.00;;;;;;;;;;5096381;28;20451;-70
2022/07/10 03:30:01;;;;;;;13.03;11.03;;;;;;;;;;5096746;28;20831;-70
2022/07/10 03:32:28;;;;;;;12.60;11.00;;;;;;;;;;5096255;28;20470;-70
2022/07/10 03:34:55;;;;;;;11.77;10.10;;;;;;;;;;5096208;28;20490;-70
2022/07/10 03:37:24;;;;;;;11.40;10.20;;;;;;;;;;5096572;28;20458;-70
2022/07/10 03:39:51;;;;;;;10.93;9.90;;;;;;;;;;5096178;28;20446;-70
2022/07/10 03:42:18;;;;;;;11.07;9.33;;;;;;;;;;5096345;28;20470;-70
2022/07/10 03:44:45;;;;;;;14.20;11.00;;;;;;;;;;5096401;28;20950;-70
2022/07/10 03:47:13;;;;;;;11.23;10.00;;;;;;;;;;5096428;28;20499;-70
2022/07/10 03:49:41;;;;;;;14.67;9.60;;;;;;;;;;5096295;28;20818;-70
2022/07/10 03:52:08;;;;;;;10.43;9.53;;;;;;;;;;5096223;28;20485;-70
2022/07/10 03:54:37;;;;;;;11.83;10.50;;;;;;;;;;5096112;28;20473;-70
2022/07/10 03:59:49;;;;;;;22.10;10.40;;;;;;;;;;5095996;28;20460;-70
2022/07/10 04:02:16;;;;;;;10.13;9.13;;;;;;;;;;5095426;28;20467;-70
2022/07/10 04:04:43;;;;;;;11.37;9.43;;;;;;;;;;5095985;28;20446;-70
2022/07/10 04:07:12;;;;;;;11.57;9.43;;;;;;;;;;5095921;28;20451;-70
2022/07/10 04:09:40;;;;;;;15.43;10.00;;;;;;;;;;5095687;28;20474;-70
2022/07/10 04:12:07;;;;;;;11.00;9.90;;;;;;;;;;5095841;28;21002;-70
2022/07/10 04:14:35;;;;;;;14.43;9.20;;;;;;;;;;5095382;28;20485;-70
2022/07/10 04:17:02;;;;;;;9.57;8.33;;;;;;;;;;5095534;28;20477;-70
2022/07/10 04:19:29;;;;;;;9.07;8.10;;;;;;;;;;5095457;28;20454;-70
2022/07/10 04:21:56;;;;;;;9.03;8.23;;;;;;;;;;5095680;28;20972;-70
2022/07/10 04:24:23;;;;;;;12.53;8.30;;;;;;;;;;5095425;28;20459;-70
2022/07/10 04:26:51;;;;;;;9.17;8.30;;;;;;;;;;5095274;28;20451;-70
2022/07/10 04:29:18;;;;;;;13.93;8.50;;;;;;;;;;5095504;28;20959;-70
2022/07/10 04:31:46;;;;;;;8.00;7.23;;;;;;;;;;5095424;28;20481;-70
2022/07/10 04:34:13;;;;;;;8.60;7.80;;;;;;;;;;5095301;28;20451;-70
2022/07/10 04:36:40;;;;;;;9.30;8.40;;;;;;;;;;5095426;28;20949;-70
2022/07/10 04:39:07;;;;;;;9.10;8.27;;;;;;;;;;5095291;28;20443;-70
2022/07/10 04:41:34;;;;;;;9.53;8.43;;;;;;;;;;5095254;28;20470;-70
2022/07/10 04:44:03;;;;;;;8.40;7.60;;;;;;;;;;5095293;28;20538;-70
2022/07/10 04:46:30;;;;;;;8.80;7.53;;;;;;;;;;5095186;28;20450;-70
2022/07/10 04:48:57;;;;;;;8.40;7.70;;;;;;;;;;5095220;28;20457;-70
2022/07/10 04:51:24;;;;;;;12.87;7.97;;;;;;;;;;5095109;28;20475;-70
2022/07/10 04:53:51;;;;;;;7.07;6.37;;;;;;;;;;5095202;28;21001;-70
2022/07/10 04:56:18;;;;;;;8.07;7.20;;;;;;;;;;5095009;28;20486;-70
2022/07/10 04:58:45;;;;;;;8.97;7.27;;;;;;;;;;5094722;28;20455;-70
2022/07/10 05:01:14;;;;;;;6.90;6.20;;;;;;;;;;5094820;28;20470;-70
2022/07/10 05:03:41;;;;;;;6.50;5.90;;;;;;;;;;5094924;28;20454;-70
2022/07/10 05:06:08;;;;;;;8.83;6.67;;;;;;;;;;5094529;28;20447;-70
2022/07/10 05:08:35;;;;;;;7.60;6.20;;;;;;;;;;5094839;28;20541;-70
2022/07/10 05:11:02;;;;;;;9.07;6.80;;;;;;;;;;5094710;28;20461;-70
2022/07/10 05:13:30;;;;;;;11.33;6.27;;;;;;;;;;5094259;28;20446;-70
2022/07/10 05:15:57;;;;;;;7.20;6.60;;;;;;;;;;5093880;28;20482;-70
2022/07/10 05:18:26;;;;;;;7.20;6.50;;;;;;;;;;5094333;28;20458;-70
2022/07/10 05:20:53;;;;;;;7.70;7.00;;;;;;;;;;5094505;28;20447;-70
2022/07/10 05:23:20;;;;;;;6.80;6.20;;;;;;;;;;5094513;28;20455;-70
2022/07/10 05:25:47;;;;;;;7.13;6.50;;;;;;;;;;5094113;28;20463;-70
2022/07/10 05:28:14;;;;;;;10.00;7.57;;;;;;;;;;5094386;28;20469;-70
2022/07/10 05:30:41;;;;;;;6.60;6.00;;;;;;;;;;5094068;28;20450;-70
2022/07/10 05:33:09;;;;;;;8.67;5.73;;;;;;;;;;5094310;28;20470;-70
2022/07/10 05:35:37;;;;;;;5.40;5.00;;;;;;;;;;5094234;28;20486;-70
2022/07/10 05:38:04;;;;;;;6.30;4.70;;;;;;;;;;5094477;28;20452;-70
2022/07/10 05:40:31;;;;;;;5.23;4.73;;;;;;;;;;5094233;28;20442;-70
2022/07/10 05:42:58;;;;;;;4.70;4.20;;;;;;;;;;5093774;28;20486;-70
2022/07/10 05:45:25;;;;;;;4.90;4.20;;;;;;;;;;5093969;28;20450;-70
2022/07/10 05:47:53;;;;;;;4.23;3.83;;;;;;;;;;5093796;28;20455;-70
2022/07/10 05:50:20;;;;;;;7.43;4.80;;;;;;;;;;5093909;28;20816;-71
2022/07/10 05:52:48;;;;;;;3.53;3.23;;;;;;;;;;5093558;28;20495;-71
2022/07/10 05:55:16;;;;;;;4.47;3.67;;;;;;;;;;5093644;28;20475;-71
2022/07/10 05:57:43;;;;;;;4.37;3.80;;;;;;;;;;5093929;28;20450;-71
2022/07/10 06:00:11;;;;;;;5.00;4.00;;;;;;;;;;5093917;28;20526;-71
2022/07/10 06:02:38;;;;;;;4.67;4.37;;;;;;;;;;5093800;28;20695;-71
2022/07/10 06:05:05;;;;;;;4.30;3.90;;;;;;;;;;5093896;28;20450;-71
2022/07/10 06:07:32;;;;;;;4.00;3.60;;;;;;;;;;5093485;28;20462;-71
2022/07/10 06:10:01;;;;;;;6.13;4.90;;;;;;;;;;5093404;28;20443;-71
2022/07/10 06:12:28;;;;;;;4.97;4.57;;;;;;;;;;5093638;28;20477;-71
2022/07/10 06:14:55;;;;;;;4.80;4.00;;;;;;;;;;5093261;28;20479;-71
2022/07/10 06:17:22;;;;;;;4.80;4.30;;;;;;;;;;5093655;28;20450;-72
2022/07/10 06:19:50;;;;;;;4.30;4.00;;;;;;;;;;5093688;28;20896;-71
2022/07/10 06:22:32;;;;;;;4.70;4.10;;;;;;;;;;5093522;28;20500;-71
2022/07/10 06:25:01;;;;;;;5.90;3.87;;;;;;;;;;5093135;28;20464;-71
2022/07/10 06:27:28;;;;;;;3.80;3.50;;;;;;;;;;5093192;28;20455;-71
2022/07/10 06:29:55;;;;;;;5.97;5.47;;;;;;;;;;5093561;28;20457;-71
2022/07/10 06:32:24;;;;;;;4.47;4.17;;;;;;;;;;5093461;28;20478;-71
2022/07/10 06:34:51;;;;;;;4.97;4.47;;;;;;;;;;5093423;28;20493;-71
2022/07/10 06:37:18;;;;;;;4.80;3.77;;;;;;;;;;5093465;28;20476;-71
2022/07/10 06:39:46;;;;;;;6.40;5.20;;;;;;;;;;5093192;28;20462;-71
2022/07/10 06:42:15;;;;;;;4.40;4.00;;;;;;;;;;5093352;28;20470;-71
2022/07/10 06:44:42;;;;;;;5.50;4.20;;;;;;;;;;5093146;28;20462;-71
2022/07/10 06:49:54;;;;;;;4.83;4.43;;;;;;;;;;5093190;28;20422;-71
2022/07/10 06:52:21;;;;;;;8.87;8.07;;;;;;;;;;5093297;28;20470;-71
2022/07/10 06:54:48;;;;;;;5.20;4.80;;;;;;;;;;5093299;28;20442;-71
2022/07/10 06:57:18;;;;;;;5.33;4.60;;;;;;;;;;5092998;28;20451;-71
2022/07/10 06:59:45;;;;;;;6.57;4.90;;;;;;;;;;5092999;28;20454;-71
2022/07/10 07:02:12;;;;;;;5.53;5.03;;;;;;;;;;5093117;28;20470;-71
2022/07/10 07:04:39;;;;;;;6.57;5.50;;;;;;;;;;5093221;28;20950;-71
2022/07/10 07:07:06;;;;;;;5.80;5.20;;;;;;;;;;5093185;28;20450;-72
2022/07/10 07:09:33;;;;;;;4.70;4.23;;;;;;;;;;5093212;28;20977;-73
2022/07/10 07:12:00;;;;;;;6.67;5.27;;;;;;;;;;5093114;28;20474;-73
2022/07/10 07:14:29;;;;;;;5.50;4.30;;;;;;;;;;5093120;28;20446;-73
2022/07/10 07:17:01;;;;;;;4.33;3.93;;;;;;;;;;5092992;28;21010;-74
2022/07/10 07:25:00;;;;;;;6.00;5.27;;;;;;;;;;5092443;28;20457;-72
2022/07/10 07:27:27;;;;;;;4.57;4.17;;;;;;;;;;5092760;28;20446;-72
2022/07/10 07:29:55;;;;;;;5.90;5.27;;;;;;;;;;5092737;28;20435;-71
2022/07/10 07:32:23;;;;;;;5.67;5.10;;;;;;;;;;5092894;28;20485;-71
2022/07/10 07:34:50;;;;;;;4.20;3.80;;;;;;;;;;5092922;28;20442;-71
2022/07/10 07:37:17;;;;;;;4.80;4.30;;;;;;;;;;5093059;28;20991;-71
2022/07/10 07:39:44;;;;;;;5.37;4.07;;;;;;;;;;5096504;28;20814;-71
2022/07/10 07:42:11;;;;;;;6.87;4.47;;;;;;;;;;5096169;28;20471;-71
2022/07/10 07:44:38;;;;;;;6.13;4.77;;;;;;;;;;5096470;28;20956;-71
2022/07/10 07:47:06;;;;;;;5.07;4.67;;;;;;;;;;5096453;28;20451;-71
2022/07/10 07:49:34;;;;;;;4.13;3.77;;;;;;;;;;5096426;28;20958;-71
2022/07/10 07:52:01;;;;;;;9.23;5.27;;;;;;;;;;5096173;28;20478;-71
2022/07/10 07:54:28;;;;;;;4.30;3.77;;;;;;;;;;5096348;28;20445;-71
2022/07/10 07:56:55;;;;;;;7.67;4.20;;;;;;;;;;5096224;28;20477;-71
2022/07/10 07:59:22;;;;;;;5.03;4.33;;;;;;;;;;5096174;28;20458;-71
2022/07/10 08:01:49;;;;;;;6.40;5.90;;;;;;;;;;5096041;28;20473;-71
2022/07/10 08:04:18;;;;;;;14.87;13.37;;;;;;;;;;5095818;28;20450;-71
2022/07/10 08:06:45;;;;;;;8.23;4.57;;;;;;;;;;5096003;28;20454;-71
2022/07/10 08:09:12;;;;;;;5.00;4.60;;;;;;;;;;5095134;28;20450;-72
2022/07/10 08:11:39;;;;;;;4.47;4.07;;;;;;;;;;5095592;28;20471;-72
2022/07/10 08:14:06;;;;;;;6.20;4.70;;;;;;;;;;5094943;28;20457;-71
2022/07/10 08:16:33;;;;;;;4.40;4.00;;;;;;;;;;5095303;28;20485;-71
2022/07/10 08:19:01;;;;;;;7.33;4.70;;;;;;;;;;5088350;28;20506;-72
2022/07/10 08:21:30;;;;;;;5.00;3.93;;;;;;;;;;5073540;28;20690;-72
2022/07/10 08:23:57;;;;;;;4.80;4.30;;;;;;;;;;5094121;28;20955;-72
2022/07/10 08:26:24;;;;;;;6.30;4.00;;;;;;;;;;5093938;28;20788;-76
2022/07/10 08:28:51;;;;;;;5.93;4.27;;;;;;;;;;5094028;28;20454;-72
2022/07/10 08:31:18;;;;;;;3.93;3.60;;;;;;;;;;5094065;28;20474;-72
2022/07/10 08:33:46;;;;;;;5.77;4.37;;;;;;;;;;5093930;28;20451;-72
2022/07/10 08:36:13;;;;;;;4.60;4.20;;;;;;;;;;5094156;28;20490;-72
2022/07/10 08:38:42;;;;;;;5.87;4.53;;;;;;;;;;5094191;28;20450;-72
2022/07/10 08:41:09;;;;;;;3.70;3.40;;;;;;;;;;5093888;28;20485;-72
2022/07/10 08:43:36;;;;;;;8.00;6.77;;;;;;;;;;5094057;28;20906;-72
2022/07/10 08:46:04;;;;;;;4.50;4.10;;;;;;;;;;5093831;28;20453;-72
2022/07/10 08:48:34;;;;;;;5.27;3.97;;;;;;;;;;5093597;28;20451;-72
2022/07/10 08:51:03;;;;;;;3.50;3.10;;;;;;;;;;5092753;28;20458;-72
2022/07/10 08:53:32;;;;;;;3.37;3.00;;;;;;;;;;5093434;28;20451;-72
2022/07/10 08:56:00;;;;;;;7.60;3.50;;;;;;;;;;5093095;28;20486;-71
2022/07/10 08:58:28;;;;;;;5.17;3.67;;;;;;;;;;5093485;28;20454;-72
2022/07/10 09:00:55;;;;;;;4.13;3.73;;;;;;;;;;5093588;28;20451;-72
2022/07/10 09:03:22;;;;;;;5.07;3.10;;;;;;;;;;5093616;28;21023;-72
2022/07/10 09:05:51;;;;;;;4.30;3.30;;;;;;;;;;5094560;28;20454;-72
2022/07/10 09:08:26;;;;;;;12.30;3.10;;;;;;;;;;5094545;28;20819;-72
2022/07/10 09:10:53;;;;;;;3.10;2.83;;;;;;;;;;5094592;28;20495;-71
2022/07/10 09:13:24;;;;;;;9.47;3.10;;;;;;;;;;5094145;28;20455;-72
2022/07/10 09:15:53;;;;;;;3.03;2.73;;;;;;;;;;5084351;28;20487;-72
2022/07/10 09:18:23;;;;;;;3.47;3.17;;;;;;;;;;5072317;28;20440;-72
2022/07/10 09:20:50;;;;;;;5.23;3.10;;;;;;;;;;5072459;28;20440;-72
2022/07/10 09:23:20;;;;;;;3.80;2.90;;;;;;;;;;5072349;28;20820;-72
2022/07/10 09:25:48;;;;;;;6.30;4.73;;;;;;;;;;5073198;28;20471;-72
2022/07/10 09:28:17;;;;;;;5.87;4.97;;;;;;;;;;5073664;28;20830;-72
2022/07/10 09:30:46;;;;;;;6.07;3.57;;;;;;;;;;5073294;28;20451;-72
2022/07/10 09:33:24;;;;;;;5.40;3.17;;;;;;;;;;5073585;28;20482;-72
2022/07/10 09:36:07;;;;;;;5.23;3.70;;;;;;;;;;5073476;28;20858;-72
2022/07/10 09:38:51;;;;;;;3.17;2.87;;;;;;;;;;5073779;28;20495;-72
2022/07/10 09:41:19;;;;;;;4.33;3.37;;;;;;;;;;5073414;28;20479;-72
2022/07/10 09:43:47;;;;;;;3.37;3.07;;;;;;;;;;5073626;28;20454;-74
2022/07/10 09:46:16;;;;;;;3.73;3.27;;;;;;;;;;5073399;28;20471;-74
2022/07/10 09:48:43;;;;;;;3.30;3.00;;;;;;;;;;5073647;28;20929;-74
2022/07/10 09:51:11;;;;;;;3.50;3.20;;;;;;;;;;5073217;28;20486;-73
2022/07/10 09:53:40;;;;;;;5.50;4.30;;;;;;;;;;5073258;28;20451;-72
2022/07/10 09:56:08;;;;;;;4.23;3.87;;;;;;;;;;5073359;28;20566;-71
2022/07/10 09:58:36;;;;;;;4.60;3.63;;;;;;;;;;5073238;28;20443;-71
2022/07/10 10:01:03;;;;;;;4.03;3.20;;;;;;;;;;5072665;28;20448;-72
2022/07/10 10:03:34;;;;;;;4.60;3.50;;;;;;;;;;5073221;28;20458;-72
2022/07/10 10:06:03;;;;;;;4.87;3.13;;;;;;;;;;5073382;28;20451;-72
2022/07/10 10:08:31;;;;;;;3.57;3.27;;;;;;;;;;5073053;28;20452;-72
2022/07/10 10:10:59;;;;;;;4.87;4.43;;;;;;;;;;5073350;28;20832;-73
2022/07/10 10:13:27;;;;;;;6.67;3.93;;;;;;;;;;5073347;28;20813;-74
2022/07/10 10:15:55;;;;;;;4.13;3.77;;;;;;;;;;5073036;28;21007;-73
2022/07/10 10:18:23;;;;;;;3.63;3.33;;;;;;;;;;5072890;28;20456;-73
2022/07/10 10:20:51;;;;;;;5.20;4.70;;;;;;;;;;5072862;28;20538;-71
2022/07/10 10:23:20;;;;;;;4.17;3.30;;;;;;;;;;5073042;28;20512;-71
2022/07/10 10:25:48;;;;;;;11.10;9.23;;;;;;;;;;5072790;28;20550;-71
2022/07/10 10:28:15;;;;;;;5.03;4.53;;;;;;;;;;5072859;28;20452;-71
2022/07/10 10:30:44;;;;;;;6.10;4.20;;;;;;;;;;5072841;28;20467;-71
2022/07/10 10:33:30;;;;;;;4.30;3.90;;;;;;;;;;5073110;28;20463;-72
2022/07/10 10:35:58;;;;;;;4.20;3.00;;;;;;;;;;5073002;28;20456;-72
2022/07/10 10:38:25;;;;;;;3.77;3.37;;;;;;;;;;5072813;28;20937;-72
2022/07/10 10:40:52;;;;;;;3.23;2.97;;;;;;;;;;5072983;28;20452;-72
2022/07/10 10:43:20;;;;;;;2.43;2.23;;;;;;;;;;5072773;28;20460;-72
2022/07/10 10:45:48;;;;;;;2.47;2.27;;;;;;;;;;5072817;28;20509;-72
2022/07/10 10:48:16;;;;;;;2.33;2.13;;;;;;;;;;5072702;28;20447;-72
2022/07/10 10:50:44;;;;;;;2.80;2.13;;;;;;;;;;5072490;28;20550;-72
2022/07/10 10:53:16;;;;;;;4.13;2.17;;;;;;;;;;5072695;28;20463;-72
2022/07/10 10:56:03;;;;;;;3.33;2.80;;;;;;;;;;5072652;28;20462;-71
2022/07/10 10:58:38;;;;;;;2.77;2.57;;;;;;;;;;5072448;28;20915;-72
2022/07/10 11:01:06;;;;;;;6.10;5.50;;;;;;;;;;5072563;28;20447;-72
2022/07/10 11:03:33;;;;;;;2.67;2.10;;;;;;;;;;5072524;28;20443;-72
2022/07/10 11:06:02;;;;;;;5.10;2.10;;;;;;;;;;5072439;28;20452;-72
2022/07/10 11:08:41;;;;;;;3.90;1.80;;;;;;;;;;5072619;28;20452;-72
2022/07/10 11:11:26;;;;;;;3.00;1.83;;;;;;;;;;5072562;28;20563;-72
2022/07/10 11:13:58;;;;;;;2.43;1.70;;;;;;;;;;5075175;28;20976;-75
2022/07/10 11:16:25;;;;;;;4.53;1.77;;;;;;;;;;5076391;28;20988;-72
2022/07/10 11:18:54;;;;;;;2.90;1.73;;;;;;;;;;5076505;28;20447;-72
2022/07/10 11:21:24;;;;;;;1.90;1.70;;;;;;;;;;5076102;28;20475;-72
2022/07/10 11:23:58;;;;;;;2.67;1.57;;;;;;;;;;5076060;28;20463;-74
2022/07/10 11:26:26;;;;;;;2.03;1.83;;;;;;;;;;5076112;28;20508;-73
2022/07/10 11:28:54;;;;;;;3.70;1.47;;;;;;;;;;5076402;28;20501;-73
2022/07/10 11:31:22;;;;;;;3.70;2.00;;;;;;;;;;5076211;28;21011;-73
2022/07/10 11:33:51;;;;;;;2.00;1.50;;;;;;;;;;5075887;28;20455;-73
2022/07/10 11:36:19;;;;;;;2.03;1.67;;;;;;;;;;5075821;28;20458;-74
2022/07/10 11:38:47;;;;;;;8.90;1.77;;;;;;;;;;5076194;28;20937;-73
2022/07/10 11:41:17;;;;;;;2.13;1.53;;;;;;;;;;5075674;28;20475;-73
2022/07/10 11:43:47;;;;;;;2.80;1.40;;;;;;;;;;5075674;28;20451;-72
2022/07/10 11:46:15;;;;;;;4.70;1.50;;;;;;;;;;5075829;28;20969;-72
2022/07/10 11:48:42;;;;;;;2.73;1.77;;;;;;;;;;5076221;28;20458;-74
2022/07/10 11:51:19;;;;;;;3.00;1.60;;;;;;;;;;5075681;28;20493;-72
2022/07/10 11:53:57;;;;;;;2.00;1.73;;;;;;;;;;5076006;28;20458;-72
2022/07/10 11:56:26;;;;;;;2.80;1.63;;;;;;;;;;5075782;28;20458;-73
2022/07/10 11:58:56;;;;;;;2.07;1.70;;;;;;;;;;5075963;28;20955;-72
2022/07/10 12:01:24;;;;;;;2.07;1.73;;;;;;;;;;5075404;28;20483;-72
2022/07/10 12:03:58;;;;;;;2.03;1.60;;;;;;;;;;5075710;28;20971;-72
2022/07/10 12:06:25;;;;;;;6.20;1.67;;;;;;;;;;5081465;28;20814;-72
2022/07/10 12:08:53;;;;;;;4.17;1.57;;;;;;;;;;5077181;28;20442;-72
2022/07/10 12:11:20;;;;;;;2.77;1.50;;;;;;;;;;5093408;28;20478;-72
2022/07/10 12:13:50;;;;;;;4.10;1.67;;;;;;;;;;5094338;28;21011;-72
2022/07/10 12:16:17;;;;;;;3.40;1.97;;;;;;;;;;5094030;28;20660;-72
2022/07/10 12:18:45;;;;;;;1.60;1.30;;;;;;;;;;5094200;28;20485;-72
2022/07/10 12:21:12;;;;;;;3.37;1.53;;;;;;;;;;5093829;28;20474;-73
2022/07/10 12:23:41;;;;;;;2.70;1.70;;;;;;;;;;5093326;28;20911;-72
2022/07/10 12:26:10;;;;;;;1.97;1.70;;;;;;;;;;5094115;28;20497;-72
2022/07/10 12:28:50;;;;;;;3.20;1.80;;;;;;;;;;5086055;28;20537;-72
2022/07/10 12:31:21;;;;;;;5.80;1.90;;;;;;;;;;5073440;28;20472;-73
2022/07/10 12:33:51;;;;;;;3.20;1.50;;;;;;;;;;5074035;28;20436;-72
2022/07/10 12:36:19;;;;;;;3.63;1.40;;;;;;;;;;5073578;28;21007;-72
2022/07/10 12:38:54;;;;;;;1.80;1.50;;;;;;;;;;5073261;28;20499;-73
2022/07/10 12:41:24;;;;;;;2.37;1.70;;;;;;;;;;5073651;28;20600;-72
2022/07/10 12:43:53;;;;;;;2.17;1.60;;;;;;;;;;5075003;28;20539;-72
2022/07/10 12:46:21;;;;;;;2.47;1.57;;;;;;;;;;5074423;28;20452;-72
2022/07/10 12:49:04;;;;;;;4.03;1.73;;;;;;;;;;5074876;28;20956;-72
2022/07/10 12:51:31;;;;;;;6.23;2.23;;;;;;;;;;5074070;28;20476;-72
2022/07/10 12:53:59;;;;;;;2.87;1.70;;;;;;;;;;5074358;28;20451;-72
2022/07/10 12:56:30;;;;;;;3.70;2.53;;;;;;;;;;5074377;28;20454;-72
2022/07/10 12:58:59;;;;;;;3.10;1.60;;;;;;;;;;5074319;28;20491;-73
2022/07/10 13:01:27;;;;;;;4.23;1.70;;;;;;;;;;5074205;28;20475;-73
2022/07/10 13:04:02;;;;;;;4.60;1.87;;;;;;;;;;5074057;28;20823;-73
2022/07/10 13:06:30;;;;;;;4.27;2.07;;;;;;;;;;5074607;28;20498;-73
2022/07/10 13:08:57;;;;;;;2.10;1.40;;;;;;;;;;5074540;28;20450;-73
2022/07/10 13:11:24;;;;;;;1.90;1.40;;;;;;;;;;5073983;28;20479;-74
2022/07/10 13:13:52;;;;;;;2.60;1.70;;;;;;;;;;5074416;28;20906;-74
2022/07/10 13:16:20;;;;;;;2.70;1.73;;;;;;;;;;5074383;28;20448;-73
2022/07/10 13:18:47;;;;;;;3.23;1.60;;;;;;;;;;5074117;28;20848;-73
2022/07/10 13:21:14;;;;;;;5.00;2.07;;;;;;;;;;5074166;28;20497;-73
2022/07/10 13:23:42;;;;;;;10.03;3.70;;;;;;;;;;5074025;28;20962;-73
2022/07/10 13:26:10;;;;;;;1.80;1.30;;;;;;;;;;5074841;28;20448;-72
2022/07/10 13:28:37;;;;;;;2.27;1.60;;;;;;;;;;5074174;28;20448;-72
2022/07/10 13:31:04;;;;;;;2.17;1.53;;;;;;;;;;5073798;28;20448;-72
2022/07/10 13:33:33;;;;;;;2.90;1.50;;;;;;;;;;5074076;28;20455;-72
2022/07/10 13:36:03;;;;;;;3.83;1.53;;;;;;;;;;5073258;28;20456;-72
2022/07/10 13:38:31;;;;;;;3.13;1.37;;;;;;;;;;5073934;28;20562;-72
2022/07/10 13:40:58;;;;;;;4.80;1.40;;;;;;;;;;5073609;28;20455;-72
2022/07/10 13:43:28;;;;;;;2.57;1.50;;;;;;;;;;5073634;28;20447;-72
2022/07/10 13:45:58;;;;;;;2.80;1.47;;;;;;;;;;5073910;28;20456;-72
2022/07/10 13:48:25;;;;;;;1.80;1.40;;;;;;;;;;5073769;28;20447;-72
2022/07/10 13:50:54;;;;;;;2.10;1.37;;;;;;;;;;5073716;28;20509;-72
2022/07/10 13:53:21;;;;;;;3.00;1.40;;;;;;;;;;5073619;28;20455;-72
2022/07/10 13:55:49;;;;;;;1.90;1.13;;;;;;;;;;5073765;28;20452;-72
2022/07/10 13:58:17;;;;;;;3.83;1.70;;;;;;;;;;5073596;28;20533;-72
2022/07/10 14:00:45;;;;;;;2.67;1.57;;;;;;;;;;5073308;28;20525;-72
2022/07/10 14:03:12;;;;;;;1.93;1.60;;;;;;;;;;5073224;28;20475;-72
2022/07/10 14:05:39;;;;;;;2.97;1.23;;;;;;;;;;5073602;28;20479;-72
2022/07/10 14:08:07;;;;;;;2.90;1.30;;;;;;;;;;5073586;28;20453;-72
2022/07/10 14:10:35;;;;;;;6.40;2.90;;;;;;;;;;5073424;28;20443;-72
2022/07/10 14:13:02;;;;;;;2.00;1.53;;;;;;;;;;5073460;28;21010;-72
2022/07/10 14:15:29;;;;;;;2.47;1.30;;;;;;;;;;5073442;28;20452;-72
2022/07/10 14:17:57;;;;;;;2.50;1.20;;;;;;;;;;5073834;28;20495;-72
2022/07/10 14:20:24;;;;;;;4.03;1.57;;;;;;;;;;5073444;28;21004;-72
2022/07/10 14:22:51;;;;;;;2.17;1.30;;;;;;;;;;5073018;28;20478;-72
2022/07/10 14:25:20;;;;;;;4.10;1.80;;;;;;;;;;5073060;28;20470;-72
2022/07/10 14:27:47;;;;;;;2.40;1.40;;;;;;;;;;5073417;28;20809;-72
2022/07/10 14:30:14;;;;;;;2.90;1.70;;;;;;;;;;5073077;28;20460;-72
2022/07/10 14:32:41;;;;;;;3.73;1.47;;;;;;;;;;5073262;28;20980;-73
2022/07/10 14:35:09;;;;;;;2.03;1.30;;;;;;;;;;5073289;28;20444;-72
2022/07/10 14:37:36;;;;;;;2.83;1.40;;;;;;;;;;5072953;28;20483;-72
2022/07/10 14:40:04;;;;;;;3.37;1.20;;;;;;;;;;5073258;28;20824;-72
2022/07/10 14:42:32;;;;;;;1.83;1.40;;;;;;;;;;5073087;28;20475;-72
2022/07/10 14:44:59;;;;;;;2.97;2.67;;;;;;;;;;5073185;28;20439;-73
2022/07/10 14:47:29;;;;;;;1.87;1.50;;;;;;;;;;5075177;28;20835;-72
2022/07/10 14:49:56;;;;;;;3.63;1.40;;;;;;;;;;5077266;28;20534;-72
2022/07/10 14:52:25;;;;;;;2.60;1.30;;;;;;;;;;5077153;28;20521;-72
2022/07/10 14:54:52;;;;;;;2.97;1.43;;;;;;;;;;5077191;28;20860;-72
2022/07/10 14:57:19;;;;;;;2.37;1.47;;;;;;;;;;5076803;28;20453;-72